createdAt,value
2022-12-19T17:20:23.242Z,11.63
2022-12-19T17:22:50.458Z,10.88
2022-12-19T17:25:25.991Z,11.57
2022-12-19T17:27:54.868Z,11.55
2022-12-19T17:30:22.615Z,11.90
2022-12-19T17:32:52.416Z,11.82
2022-12-19T17:35:28.073Z,11.18
2022-12-19T17:37:56.640Z,10.20
2022-12-19T17:40:26.432Z,10.02
2022-12-19T17:42:53.711Z,11.13
2022-12-19T17:45:22.422Z,10.50
2022-12-19T17:47:49.932Z,10.30
2022-12-19T17:50:29.110Z,10.25
2022-12-19T17:52:57.040Z,11.65
2022-12-19T17:55:30.228Z,11.32
2022-12-19T17:57:57.720Z,10.13
2022-12-19T18:00:30.742Z,10.95
2022-12-19T18:03:02.719Z,10.10
2022-12-19T18:05:34.003Z,11.07
2022-12-19T18:08:00.859Z,9.55
2022-12-19T18:10:30.503Z,9.48
2022-12-19T18:12:58.087Z,9.77
2022-12-19T18:15:25.501Z,9.43
2022-12-19T18:17:53.973Z,9.48
2022-12-19T18:20:32.871Z,9.85
2022-12-19T18:23:00.573Z,10.80
2022-12-19T18:25:31.827Z,9.35
2022-12-19T18:27:58.906Z,10.30
2022-12-19T18:30:26.071Z,10.52
2022-12-19T18:32:57.295Z,9.38
2022-12-19T18:35:56.547Z,10.23
2022-12-19T18:38:24.389Z,10.95
2022-12-19T18:40:52.063Z,10.00
2022-12-19T18:43:19.446Z,10.30
2022-12-19T18:45:50.503Z,10.05
2022-12-19T18:48:31.225Z,10.27
2022-12-19T18:51:00.465Z,11.98
2022-12-19T18:53:36.068Z,10.07
2022-12-19T18:56:05.666Z,9.63
2022-12-19T18:58:33.456Z,10.52
2022-12-19T19:01:01.954Z,11.35
2022-12-19T19:03:37.853Z,10.93
2022-12-19T19:06:22.902Z,11.13
2022-12-19T19:08:51.603Z,10.70
2022-12-19T19:11:20.424Z,11.02
2022-12-19T19:13:47.593Z,10.35
2022-12-19T19:16:21.406Z,8.93
2022-12-19T19:18:55.867Z,9.65
2022-12-19T19:21:32.165Z,10.93
2022-12-19T19:24:12.493Z,9.65
2022-12-19T19:26:39.648Z,9.50
2022-12-19T19:29:06.655Z,10.27
2022-12-19T19:31:38.265Z,10.68
2022-12-19T19:34:19.597Z,10.77
2022-12-19T19:36:49.575Z,9.25
2022-12-19T19:39:17.532Z,10.10
2022-12-19T19:41:44.429Z,9.98
2022-12-19T19:44:11.638Z,9.70
2022-12-19T19:46:38.598Z,8.80
2022-12-19T19:49:05.769Z,8.80
2022-12-19T19:51:32.718Z,9.13
2022-12-19T19:53:59.662Z,9.70
2022-12-19T19:56:26.560Z,9.52
2022-12-19T19:58:55.313Z,9.52
2022-12-19T20:01:22.326Z,8.38
2022-12-19T20:03:49.596Z,8.45
2022-12-19T20:06:17.920Z,9.15
2022-12-19T20:08:45.334Z,8.15
2022-12-19T20:11:12.487Z,9.20
2022-12-19T20:13:39.764Z,8.52
2022-12-19T20:16:11.629Z,9.13
2022-12-19T20:18:41.740Z,9.13
2022-12-19T20:21:13.585Z,8.75
2022-12-19T20:23:43.026Z,8.05
2022-12-19T20:26:11.554Z,8.13
2022-12-19T20:28:45.900Z,8.52
2022-12-19T20:31:14.770Z,8.45
2022-12-19T20:33:41.906Z,10.95
2022-12-19T20:36:11.266Z,8.40
2022-12-19T20:38:39.206Z,7.95
2022-12-19T20:41:06.613Z,7.07
2022-12-19T20:43:34.159Z,7.88
2022-12-19T20:46:10.068Z,7.63
2022-12-19T20:48:37.753Z,7.88
2022-12-19T20:51:06.027Z,8.25
2022-12-19T20:53:37.547Z,7.88
2022-12-19T20:56:06.158Z,7.47
2022-12-19T20:58:35.305Z,7.78
2022-12-19T21:01:11.040Z,7.68
2022-12-19T21:03:38.663Z,6.45
2022-12-19T21:06:07.476Z,6.55
2022-12-19T21:08:35.497Z,6.55
2022-12-19T21:11:03.820Z,6.53
2022-12-19T21:13:30.818Z,6.80
2022-12-19T21:16:02.117Z,6.35
2022-12-19T21:18:29.594Z,6.47
2022-12-19T21:20:56.695Z,7.35
2022-12-19T21:23:25.404Z,6.38
2022-12-19T21:25:56.246Z,6.60
2022-12-19T21:28:23.579Z,6.78
2022-12-19T21:31:02.831Z,6.68
2022-12-19T21:33:30.290Z,7.47
2022-12-19T21:35:57.206Z,6.53
2022-12-19T21:38:24.619Z,6.40
2022-12-19T21:40:51.677Z,6.28
2022-12-19T21:43:18.791Z,7.05
2022-12-19T21:45:45.787Z,6.78
2022-12-19T21:48:12.785Z,6.40
2022-12-19T21:50:40.087Z,5.93
2022-12-19T21:53:07.093Z,6.05
2022-12-19T21:55:34.269Z,5.85
2022-12-19T21:58:01.320Z,7.68
2022-12-19T22:00:28.383Z,5.38
2022-12-19T22:03:13.390Z,6.90
2022-12-19T22:05:41.367Z,5.93
2022-12-19T22:08:10.456Z,5.57
2022-12-19T22:10:39.709Z,5.82
2022-12-19T22:13:06.681Z,5.63
2022-12-19T22:15:37.237Z,5.07
2022-12-19T22:18:04.690Z,5.25
2022-12-19T22:20:31.663Z,5.28
2022-12-19T22:22:58.694Z,5.43
2022-12-19T22:25:25.628Z,4.55
2022-12-19T22:27:55.985Z,5.88
2022-12-19T22:30:22.847Z,5.03
2022-12-19T22:32:49.828Z,5.70
2022-12-19T22:35:17.089Z,4.85
2022-12-19T22:37:44.382Z,4.68
2022-12-19T22:40:13.339Z,5.63
2022-12-19T22:42:40.280Z,5.50
2022-12-19T22:45:08.026Z,4.00
2022-12-19T22:47:35.819Z,5.90
2022-12-19T22:50:02.869Z,4.82
2022-12-19T22:52:29.790Z,4.45
2022-12-19T22:54:56.771Z,4.72
2022-12-19T22:57:23.771Z,4.50
2022-12-19T22:59:50.724Z,4.55
2022-12-19T23:02:17.798Z,4.15
2022-12-19T23:04:44.891Z,4.40
2022-12-19T23:07:11.985Z,5.63
2022-12-19T23:09:38.994Z,4.40
2022-12-19T23:12:06.340Z,3.92
2022-12-19T23:14:33.190Z,4.95
2022-12-19T23:17:00.154Z,4.03
2022-12-19T23:19:27.181Z,3.88
2022-12-19T23:21:54.156Z,4.47
2022-12-19T23:24:21.103Z,4.85
2022-12-19T23:26:48.779Z,3.65
2022-12-19T23:29:16.322Z,4.78
2022-12-19T23:31:45.499Z,4.00
2022-12-19T23:34:13.365Z,4.35
2022-12-19T23:39:27.607Z,6.05
2022-12-19T23:41:54.488Z,5.15
2022-12-19T23:44:21.733Z,4.38
2022-12-19T23:46:48.820Z,4.60
2022-12-19T23:49:15.979Z,4.88
2022-12-19T23:51:43.097Z,4.35
2022-12-19T23:54:10.125Z,5.78
2022-12-19T23:56:37.490Z,4.75
2022-12-19T23:59:04.463Z,5.18
